createdAt,value
2019-02-28T00:01:32.067Z,93.60
2019-02-28T00:03:59.556Z,93.60
2019-02-28T00:06:27.085Z,93.40
2019-02-28T00:08:54.624Z,93.20
2019-02-28T00:11:22.108Z,93.10
2019-02-28T00:13:52.315Z,93.40
2019-02-28T00:16:18.912Z,93.20
2019-02-28T00:18:49.648Z,93.00
2019-02-28T00:21:15.742Z,93.10
2019-02-28T00:23:43.242Z,92.90
2019-02-28T00:26:11.555Z,93.00
2019-02-28T00:28:39.984Z,92.90
2019-02-28T00:31:07.482Z,93.10
2019-02-28T00:33:35.002Z,93.10
2019-02-28T00:36:02.526Z,92.90
2019-02-28T00:38:30.428Z,92.80
2019-02-28T00:40:57.966Z,92.90
2019-02-28T00:43:25.812Z,92.40
2019-02-28T00:45:53.443Z,92.30
2019-02-28T00:48:21.732Z,92.40
2019-02-28T00:50:49.830Z,92.40
2019-02-28T00:53:17.383Z,92.30
2019-02-28T00:55:45.928Z,92.50
2019-02-28T00:58:14.182Z,92.30
2019-02-28T01:00:41.705Z,92.40
2019-02-28T01:03:09.264Z,92.50
2019-02-28T01:05:37.287Z,92.50
2019-02-28T01:08:04.934Z,92.80
2019-02-28T01:10:35.324Z,92.80
2019-02-28T01:13:01.815Z,92.70
2019-02-28T01:15:29.305Z,92.60
2019-02-28T01:17:57.121Z,92.80
2019-02-28T01:20:26.152Z,92.80
2019-02-28T01:22:53.653Z,92.60
2019-02-28T01:25:21.147Z,92.80
2019-02-28T01:27:48.659Z,93.10
2019-02-28T01:30:16.209Z,93.20
2019-02-28T01:32:43.725Z,93.20
2019-02-28T01:35:11.338Z,93.20
2019-02-28T01:37:38.864Z,93.20
2019-02-28T01:40:06.419Z,93.60
2019-02-28T01:42:33.926Z,93.70
2019-02-28T01:45:01.442Z,93.70
2019-02-28T01:47:29.007Z,93.90
2019-02-28T01:49:57.724Z,93.90
2019-02-28T01:52:25.801Z,93.90
2019-02-28T01:54:53.337Z,93.80
2019-02-28T01:57:20.821Z,93.80
2019-02-28T01:59:48.307Z,93.80
2019-02-28T02:02:15.813Z,93.80
2019-02-28T02:04:45.770Z,93.80
2019-02-28T02:07:12.643Z,93.60
2019-02-28T02:09:42.741Z,93.50
2019-02-28T02:12:09.437Z,93.60
2019-02-28T02:14:36.988Z,93.70
2019-02-28T02:17:04.466Z,93.60
2019-02-28T02:19:32.001Z,93.50
2019-02-28T02:21:59.484Z,93.50
2019-02-28T02:24:27.976Z,93.30
2019-02-28T02:26:56.311Z,93.40
2019-02-28T02:29:23.825Z,93.40
2019-02-28T02:31:51.312Z,93.30
2019-02-28T02:34:18.841Z,93.10
2019-02-28T02:36:53.035Z,93.00
2019-02-28T02:39:17.606Z,92.90
2019-02-28T02:41:45.100Z,92.80
2019-02-28T02:44:12.582Z,92.70
2019-02-28T02:46:40.069Z,92.70
2019-02-28T02:49:07.626Z,92.30
2019-02-28T02:51:35.108Z,92.10
2019-02-28T02:54:02.621Z,92.00
2019-02-28T02:56:30.326Z,91.90
2019-02-28T02:59:01.230Z,91.70
2019-02-28T03:01:27.106Z,91.60
2019-02-28T03:03:54.602Z,91.50
2019-02-28T03:06:22.156Z,91.60
2019-02-28T03:08:49.630Z,91.50
2019-02-28T03:11:17.122Z,91.70
2019-02-28T03:13:44.821Z,91.80
2019-02-28T03:16:12.375Z,91.60
2019-02-28T03:18:39.893Z,91.80
2019-02-28T03:21:07.349Z,91.80
2019-02-28T03:23:39.791Z,91.70
2019-02-28T03:26:06.929Z,91.50
2019-02-28T03:28:33.520Z,91.20
2019-02-28T03:31:11.707Z,91.20
2019-02-28T03:33:30.285Z,91.00
2019-02-28T03:35:57.773Z,90.90
2019-02-28T03:38:25.329Z,90.60
2019-02-28T03:40:52.869Z,90.40
2019-02-28T03:43:20.353Z,90.30
2019-02-28T03:45:47.865Z,90.10
2019-02-28T03:48:15.406Z,90.00
2019-02-28T03:50:42.897Z,89.00
2019-02-28T03:53:10.382Z,89.00
2019-02-28T03:55:40.873Z,88.30
2019-02-28T03:58:07.186Z,88.30
2019-02-28T04:00:34.689Z,88.50
2019-02-28T04:03:02.187Z,88.00
2019-02-28T04:05:29.732Z,88.20
2019-02-28T04:07:57.260Z,88.00
2019-02-28T04:10:24.722Z,88.00
2019-02-28T04:12:52.209Z,87.60
2019-02-28T04:15:19.956Z,87.00
2019-02-28T04:17:47.468Z,87.10
2019-02-28T04:20:14.948Z,86.90
2019-02-28T04:22:42.494Z,86.70
2019-02-28T04:25:10.007Z,86.60
2019-02-28T04:27:40.453Z,86.20
2019-02-28T04:30:08.406Z,86.20
2019-02-28T04:32:36.115Z,85.70
2019-02-28T04:35:03.782Z,85.80
2019-02-28T04:37:31.291Z,85.70
2019-02-28T04:39:58.853Z,85.00
2019-02-28T04:42:26.341Z,85.00
2019-02-28T04:44:53.827Z,84.60
2019-02-28T04:47:21.321Z,84.70
2019-02-28T04:49:48.805Z,85.00
2019-02-28T04:52:16.353Z,85.30
2019-02-28T04:54:43.856Z,84.50
2019-02-28T04:57:11.361Z,84.40
2019-02-28T04:59:38.943Z,85.20
2019-02-28T05:02:06.427Z,84.20
2019-02-28T05:04:36.153Z,83.80
2019-02-28T05:07:03.282Z,83.70
2019-02-28T05:09:30.899Z,83.20
2019-02-28T05:11:58.402Z,82.80
2019-02-28T05:14:25.925Z,82.80
2019-02-28T05:16:53.417Z,82.80
2019-02-28T05:19:20.911Z,82.80
2019-02-28T05:21:50.634Z,82.30
2019-02-28T05:24:17.799Z,82.20
2019-02-28T05:26:45.282Z,81.90
2019-02-28T05:29:13.053Z,81.30
2019-02-28T05:31:40.750Z,80.60
2019-02-28T05:34:08.285Z,80.40
2019-02-28T05:36:37.935Z,79.90
2019-02-28T05:39:06.017Z,79.80
2019-02-28T05:41:33.569Z,80.00
2019-02-28T05:44:03.276Z,79.60
2019-02-28T05:46:30.365Z,79.60
2019-02-28T05:48:57.903Z,79.60
2019-02-28T05:51:25.845Z,79.40
2019-02-28T05:53:53.362Z,79.30
2019-02-28T05:56:21.123Z,78.90
2019-02-28T05:58:49.382Z,78.50
2019-02-28T06:01:17.979Z,78.40
2019-02-28T06:03:47.889Z,77.90
2019-02-28T06:06:17.306Z,77.00
2019-02-28T06:08:46.603Z,76.70
2019-02-28T06:11:15.354Z,76.40
2019-02-28T06:13:42.933Z,76.10
2019-02-28T06:16:12.497Z,76.20
2019-02-28T06:18:40.147Z,75.70
2019-02-28T06:21:07.651Z,75.60
2019-02-28T06:23:35.142Z,75.60
2019-02-28T06:26:02.658Z,74.90
2019-02-28T06:28:31.151Z,74.10
2019-02-28T06:31:00.249Z,73.30
2019-02-28T06:33:30.540Z,72.60
2019-02-28T06:35:57.285Z,71.30
2019-02-28T06:38:24.879Z,71.00
2019-02-28T06:40:52.379Z,71.50
2019-02-28T06:43:19.909Z,70.10
2019-02-28T06:45:47.587Z,69.90
2019-02-28T06:48:15.109Z,70.00
2019-02-28T06:50:44.668Z,69.80
2019-02-28T06:53:12.001Z,69.60
2019-02-28T06:55:47.106Z,69.60
2019-02-28T06:58:15.776Z,70.00
2019-02-28T07:00:44.206Z,69.50
2019-02-28T07:03:12.597Z,69.40
2019-02-28T07:05:40.123Z,69.50
2019-02-28T07:08:07.634Z,69.30
2019-02-28T07:10:35.247Z,68.90
2019-02-28T07:13:04.626Z,68.40
2019-02-28T07:15:32.039Z,67.90
2019-02-28T07:17:59.569Z,67.80
2019-02-28T07:20:27.151Z,67.60
2019-02-28T07:22:55.730Z,67.30
2019-02-28T07:25:23.329Z,68.00
2019-02-28T07:27:50.819Z,67.50
2019-02-28T07:30:19.294Z,67.50
2019-02-28T07:32:47.101Z,66.80
2019-02-28T07:35:14.627Z,66.90
2019-02-28T07:37:42.107Z,66.30
2019-02-28T07:40:15.516Z,66.40
2019-02-28T07:42:39.792Z,66.10
2019-02-28T07:45:08.461Z,66.00
2019-02-28T07:47:35.945Z,66.00
2019-02-28T07:50:04.057Z,66.10
2019-02-28T07:52:33.535Z,65.70
2019-02-28T07:55:00.867Z,64.50
2019-02-28T07:57:28.372Z,64.60
2019-02-28T07:59:55.899Z,64.60
2019-02-28T08:02:23.377Z,63.10
2019-02-28T08:04:54.271Z,60.90
2019-02-28T08:07:20.205Z,59.20
2019-02-28T08:09:47.714Z,58.20
2019-02-28T08:12:15.229Z,57.20
2019-02-28T08:14:43.667Z,56.90
2019-02-28T08:17:12.097Z,55.80
2019-02-28T08:19:39.651Z,55.20
2019-02-28T08:22:07.129Z,54.50
2019-02-28T08:24:35.888Z,53.50
2019-02-28T08:27:04.075Z,53.40
2019-02-28T08:29:31.573Z,52.60
2019-02-28T08:31:59.108Z,52.80
2019-02-28T08:34:26.709Z,51.90
2019-02-28T08:36:54.200Z,51.40
2019-02-28T08:39:21.834Z,50.90
2019-02-28T08:41:49.685Z,49.60
2019-02-28T08:44:22.758Z,50.50
2019-02-28T08:46:47.335Z,50.30
2019-02-28T08:49:14.929Z,50.90
2019-02-28T08:51:43.253Z,51.40
2019-02-28T08:54:10.876Z,52.10
2019-02-28T08:56:38.388Z,53.00
2019-02-28T08:59:11.810Z,53.70
2019-02-28T09:01:40.087Z,54.30
2019-02-28T09:04:05.712Z,55.40
2019-02-28T09:06:33.390Z,55.50
2019-02-28T09:09:00.890Z,55.50
2019-02-28T09:11:28.479Z,55.70
2019-02-28T09:13:55.979Z,56.10
2019-02-28T09:16:23.474Z,55.70
2019-02-28T09:18:51.004Z,55.70
2019-02-28T09:21:19.108Z,55.50
2019-02-28T09:23:46.712Z,55.10
2019-02-28T09:26:14.217Z,55.00
2019-02-28T09:28:44.421Z,55.70
2019-02-28T09:31:11.101Z,55.60
2019-02-28T09:33:38.597Z,55.90
2019-02-28T09:36:06.114Z,55.80
2019-02-28T09:38:33.627Z,55.80
2019-02-28T09:41:01.445Z,56.40
2019-02-28T09:43:30.463Z,56.30
2019-02-28T09:45:57.975Z,56.30
2019-02-28T09:48:25.458Z,56.30
2019-02-28T09:50:57.777Z,56.60
2019-02-28T09:53:22.309Z,56.10
2019-02-28T09:55:49.796Z,55.80
2019-02-28T09:58:17.353Z,55.90
2019-02-28T10:00:46.912Z,55.90
2019-02-28T10:03:15.507Z,57.10
2019-02-28T10:05:43.462Z,56.40
2019-02-28T10:08:10.973Z,56.30
2019-02-28T10:10:38.457Z,56.30
2019-02-28T10:13:05.958Z,56.00
2019-02-28T10:15:33.441Z,55.70
2019-02-28T10:18:04.063Z,55.80
2019-02-28T10:20:30.236Z,56.00
2019-02-28T10:22:57.753Z,55.80
2019-02-28T10:25:25.328Z,55.70
2019-02-28T10:27:54.516Z,56.20
2019-02-28T10:30:31.124Z,56.10
2019-02-28T10:32:51.942Z,56.60
2019-02-28T10:35:19.403Z,57.50
2019-02-28T10:37:47.147Z,57.00
2019-02-28T10:40:17.860Z,57.20
2019-02-28T10:42:46.173Z,56.70
2019-02-28T10:45:14.044Z,57.20
2019-02-28T10:47:41.516Z,57.40
2019-02-28T10:50:12.093Z,57.60
2019-02-28T10:52:39.573Z,57.20
2019-02-28T10:55:08.501Z,57.30
2019-02-28T10:57:37.210Z,57.30
2019-02-28T11:00:09.848Z,57.50
2019-02-28T11:02:37.370Z,57.10
2019-02-28T11:05:04.974Z,56.90
2019-02-28T11:07:34.211Z,57.10
2019-02-28T11:10:02.387Z,57.30
2019-02-28T11:12:29.877Z,57.40
2019-02-28T11:14:57.392Z,58.10
2019-02-28T11:17:24.872Z,57.80
2019-02-28T11:19:52.933Z,57.70
2019-02-28T11:22:20.471Z,57.50
2019-02-28T11:24:47.960Z,57.90
2019-02-28T11:27:16.071Z,58.00
2019-02-28T11:29:44.726Z,57.90
2019-02-28T11:32:12.238Z,58.40
2019-02-28T11:34:39.739Z,58.70
2019-02-28T11:37:08.894Z,59.10
2019-02-28T11:39:36.582Z,58.40
2019-02-28T11:42:04.086Z,58.70
2019-02-28T11:44:31.584Z,58.20
2019-02-28T11:46:59.188Z,57.10
2019-02-28T11:49:28.607Z,57.20
2019-02-28T11:51:56.084Z,57.00
2019-02-28T11:54:23.606Z,56.90
2019-02-28T11:56:51.099Z,56.60
2019-02-28T11:59:18.681Z,56.10
2019-02-28T12:01:48.358Z,56.10
2019-02-28T12:04:15.528Z,56.10
2019-02-28T12:06:43.024Z,55.10
2019-02-28T12:09:11.149Z,55.10
2019-02-28T12:11:38.633Z,55.10
2019-02-28T12:14:06.367Z,55.20
2019-02-28T12:16:35.272Z,55.20
2019-02-28T12:19:02.890Z,56.10
2019-02-28T12:21:30.386Z,54.70
2019-02-28T12:23:58.429Z,54.70
2019-02-28T12:26:27.341Z,54.20
2019-02-28T12:28:54.836Z,54.80
2019-02-28T12:31:22.329Z,53.40
2019-02-28T12:33:49.818Z,54.00
2019-02-28T12:36:17.341Z,54.50
2019-02-28T12:38:44.845Z,55.10
2019-02-28T12:41:12.364Z,54.90
2019-02-28T12:43:40.589Z,54.70
2019-02-28T12:46:09.021Z,54.60
2019-02-28T12:48:36.576Z,54.90
2019-02-28T12:51:05.388Z,54.60
2019-02-28T12:53:33.758Z,55.10
2019-02-28T12:56:01.397Z,54.40
2019-02-28T12:58:36.518Z,54.00
2019-02-28T13:01:00.074Z,55.20
2019-02-28T13:03:27.648Z,56.00
2019-02-28T13:05:55.308Z,56.60
2019-02-28T13:08:22.951Z,56.00
2019-02-28T13:10:50.436Z,56.00
2019-02-28T13:13:21.594Z,56.20
2019-02-28T13:15:49.174Z,55.90
2019-02-28T13:18:16.582Z,56.00
2019-02-28T13:20:44.120Z,56.70
2019-02-28T13:23:11.708Z,57.30
2019-02-28T13:25:39.232Z,57.20
2019-02-28T13:28:06.766Z,57.20
2019-02-28T13:30:34.268Z,57.20
2019-02-28T13:33:01.837Z,56.10
2019-02-28T13:35:30.032Z,56.80
2019-02-28T13:37:57.524Z,56.90
2019-02-28T13:40:25.092Z,56.80
2019-02-28T13:42:52.692Z,57.10
2019-02-28T13:45:23.170Z,56.90
2019-02-28T13:47:49.790Z,56.00
2019-02-28T13:50:22.162Z,55.90
2019-02-28T13:52:52.093Z,56.60
2019-02-28T13:55:18.956Z,56.70
2019-02-28T13:57:47.546Z,56.90
2019-02-28T14:00:19.827Z,55.70
2019-02-28T14:02:47.462Z,55.70
2019-02-28T14:05:14.983Z,55.70
2019-02-28T14:07:42.561Z,55.60
2019-02-28T14:10:11.464Z,55.00
2019-02-28T14:12:39.142Z,55.20
2019-02-28T14:15:08.529Z,54.90
2019-02-28T14:17:36.470Z,54.60
2019-02-28T14:20:04.628Z,54.40
2019-02-28T14:22:32.150Z,54.00
2019-02-28T14:25:05.161Z,53.40
2019-02-28T14:27:29.040Z,53.00
2019-02-28T14:29:56.643Z,53.30
2019-02-28T14:32:24.203Z,53.40
2019-02-28T14:34:51.717Z,53.50
2019-02-28T14:37:19.630Z,53.80
2019-02-28T14:39:47.978Z,53.80
2019-02-28T14:42:15.488Z,54.10
2019-02-28T14:44:43.080Z,54.50
2019-02-28T14:47:10.769Z,54.90
2019-02-28T14:49:38.283Z,55.10
2019-02-28T14:52:05.814Z,55.30
2019-02-28T14:54:33.517Z,55.40
2019-02-28T14:57:01.087Z,55.50
2019-02-28T14:59:31.011Z,55.70
2019-02-28T15:01:57.940Z,55.70
2019-02-28T15:04:25.482Z,55.80
2019-02-28T15:06:53.002Z,56.10
2019-02-28T15:09:20.518Z,56.20
2019-02-28T15:11:48.240Z,56.50
2019-02-28T15:14:15.781Z,56.70
2019-02-28T15:16:43.311Z,56.60
2019-02-28T15:19:10.966Z,56.50
2019-02-28T15:21:42.269Z,56.00
2019-02-28T15:24:08.531Z,56.10
2019-02-28T15:26:37.157Z,55.90
2019-02-28T15:29:04.703Z,55.10
2019-02-28T15:31:33.133Z,55.20
2019-02-28T15:34:02.240Z,55.10
2019-02-28T15:36:30.284Z,55.20
2019-02-28T15:38:57.965Z,55.40
2019-02-28T15:41:25.638Z,55.80
2019-02-28T15:43:53.702Z,55.20
2019-02-28T15:46:21.922Z,55.00
2019-02-28T15:48:49.535Z,55.00
2019-02-28T15:51:17.064Z,55.20
2019-02-28T15:53:46.847Z,55.30
2019-02-28T15:56:19.729Z,56.80
2019-02-28T15:58:44.033Z,57.20
2019-02-28T16:01:11.592Z,57.30
2019-02-28T16:03:39.131Z,57.40
2019-02-28T16:06:06.689Z,57.60
2019-02-28T16:08:34.248Z,57.90
2019-02-28T16:11:03.319Z,58.20
2019-02-28T16:13:31.248Z,58.40
2019-02-28T16:15:58.861Z,58.90
2019-02-28T16:18:26.362Z,59.20
2019-02-28T16:20:53.939Z,59.40
2019-02-28T16:23:23.536Z,59.90
2019-02-28T16:25:50.891Z,60.10
2019-02-28T16:28:18.423Z,60.50
2019-02-28T16:30:45.994Z,61.10
2019-02-28T16:33:13.523Z,61.60
2019-02-28T16:35:41.082Z,61.50
2019-02-28T16:38:10.117Z,61.40
2019-02-28T16:40:37.989Z,61.30
2019-02-28T16:43:05.569Z,61.30
2019-02-28T16:45:37.477Z,60.90
2019-02-28T16:48:13.937Z,61.70
2019-02-28T16:50:41.462Z,60.70
2019-02-28T16:53:14.995Z,60.80
2019-02-28T16:55:38.301Z,61.10
2019-02-28T16:58:05.869Z,61.30
2019-02-28T17:00:33.436Z,60.90
2019-02-28T17:03:04.087Z,60.10
2019-02-28T17:05:30.363Z,60.10
2019-02-28T17:07:57.889Z,60.50
2019-02-28T17:10:35.488Z,60.70
2019-02-28T17:13:25.159Z,60.90
2019-02-28T17:16:15.174Z,61.50
2019-02-28T17:18:42.710Z,62.90
2019-02-28T17:21:16.882Z,62.70
2019-02-28T17:23:39.700Z,64.00
2019-02-28T17:26:07.216Z,64.90
2019-02-28T17:28:46.566Z,65.90
2019-02-28T17:31:22.840Z,67.20
2019-02-28T17:33:50.447Z,67.70
2019-02-28T17:36:17.989Z,68.00
2019-02-28T17:38:45.505Z,68.00
2019-02-28T17:41:13.080Z,68.00
2019-02-28T17:43:40.963Z,68.00
2019-02-28T17:46:09.716Z,67.90
2019-02-28T17:49:07.370Z,68.40
2019-02-28T17:51:59.525Z,68.10
2019-02-28T17:54:46.325Z,67.80
2019-02-28T17:57:53.869Z,67.90
2019-02-28T18:00:53.178Z,68.10
2019-02-28T18:03:51.086Z,67.40
2019-02-28T18:06:55.134Z,67.60
2019-02-28T18:10:37.706Z,67.50
2019-02-28T18:13:20.214Z,68.30
2019-02-28T18:16:21.620Z,68.70
2019-02-28T18:19:36.900Z,68.90
2019-02-28T18:22:22.606Z,70.00
2019-02-28T18:25:52.326Z,70.40
2019-02-28T18:29:05.703Z,70.80
2019-02-28T18:31:33.224Z,70.80
2019-02-28T18:34:06.303Z,71.40
2019-02-28T18:36:33.851Z,71.70
2019-02-28T18:39:01.369Z,71.90
2019-02-28T18:41:28.876Z,72.20
2019-02-28T18:43:56.640Z,72.60
2019-02-28T18:46:24.208Z,73.00
2019-02-28T18:48:54.380Z,73.60
2019-02-28T18:51:21.087Z,73.80
2019-02-28T18:53:48.602Z,73.70
2019-02-28T18:56:16.183Z,73.80
2019-02-28T18:58:43.733Z,74.20
2019-02-28T19:01:11.280Z,74.40
2019-02-28T19:03:38.870Z,74.60
2019-02-28T19:06:06.618Z,72.50
2019-02-28T19:08:34.243Z,69.90
2019-02-28T19:11:01.786Z,66.90
2019-02-28T19:13:29.329Z,66.30
2019-02-28T19:15:57.070Z,67.20
2019-02-28T19:18:24.644Z,63.70
2019-02-28T19:20:52.178Z,62.60
2019-02-28T19:23:19.744Z,61.60
2019-02-28T19:25:47.276Z,59.40
2019-02-28T19:28:14.822Z,59.00
2019-02-28T19:30:42.374Z,58.60
2019-02-28T19:33:09.905Z,58.70
2019-02-28T19:35:37.462Z,59.20
2019-02-28T19:38:05.030Z,59.20
2019-02-28T19:40:32.613Z,59.40
2019-02-28T19:43:00.131Z,59.60
2019-02-28T19:45:28.384Z,58.70
2019-02-28T19:47:55.872Z,59.00
2019-02-28T19:50:23.453Z,59.80
2019-02-28T19:52:50.972Z,59.00
2019-02-28T19:55:18.545Z,59.50
2019-02-28T19:57:46.061Z,59.40
2019-02-28T20:00:14.777Z,59.90
2019-02-28T20:02:42.384Z,59.80
2019-02-28T20:05:10.087Z,59.90
2019-02-28T20:07:37.633Z,59.90
2019-02-28T20:10:07.878Z,59.70
2019-02-28T20:12:35.385Z,59.20
2019-02-28T20:15:03.531Z,60.20
2019-02-28T20:17:31.086Z,59.80
2019-02-28T20:19:58.672Z,60.00
2019-02-28T20:22:26.536Z,60.10
2019-02-28T20:24:54.100Z,59.90
2019-02-28T20:27:21.632Z,59.90
2019-02-28T20:29:55.063Z,60.00
2019-02-28T20:32:18.479Z,60.70
2019-02-28T20:34:45.982Z,61.30
2019-02-28T20:37:13.498Z,60.40
2019-02-28T20:39:41.007Z,60.50
2019-02-28T20:42:08.558Z,61.00
2019-02-28T20:44:36.143Z,61.10
2019-02-28T20:47:03.648Z,61.40
2019-02-28T20:49:31.222Z,61.40
2019-02-28T20:51:58.750Z,61.70
2019-02-28T20:54:26.263Z,62.70
2019-02-28T20:56:53.827Z,61.70
2019-02-28T20:59:21.343Z,61.80
2019-02-28T21:01:48.879Z,61.60
2019-02-28T21:04:16.397Z,61.60
2019-02-28T21:06:43.974Z,61.90
2019-02-28T21:09:14.158Z,62.00
2019-02-28T21:11:41.683Z,61.90
2019-02-28T21:14:09.263Z,61.90
2019-02-28T21:16:36.782Z,61.90
2019-02-28T21:19:04.309Z,62.30
2019-02-28T21:21:31.855Z,62.80
2019-02-28T21:23:59.657Z,63.00
2019-02-28T21:26:27.177Z,63.40
2019-02-28T21:28:54.740Z,63.60
2019-02-28T21:31:22.271Z,63.70
2019-02-28T21:33:49.792Z,64.30
2019-02-28T21:36:17.333Z,64.50
2019-02-28T21:38:44.915Z,65.00
2019-02-28T21:41:12.441Z,65.30
2019-02-28T21:43:39.995Z,65.70
2019-02-28T21:46:07.538Z,65.80
2019-02-28T21:48:35.054Z,66.30
2019-02-28T21:51:02.913Z,66.90
2019-02-28T21:53:30.447Z,67.10
2019-02-28T21:55:57.948Z,67.60
2019-02-28T21:58:25.502Z,67.70
2019-02-28T22:00:53.086Z,68.10
2019-02-28T22:03:20.684Z,68.60
2019-02-28T22:05:48.231Z,69.30
2019-02-28T22:08:15.733Z,69.90
2019-02-28T22:10:43.254Z,70.30
2019-02-28T22:13:10.795Z,70.90
2019-02-28T22:15:38.334Z,71.40
2019-02-28T22:18:05.846Z,71.80
2019-02-28T22:20:33.365Z,72.60
2019-02-28T22:23:00.894Z,73.20
2019-02-28T22:25:28.387Z,73.80
2019-02-28T22:27:55.923Z,73.90
2019-02-28T22:30:57.669Z,74.50
2019-02-28T22:33:40.666Z,75.30
2019-02-28T22:36:09.875Z,76.30
2019-02-28T22:38:37.413Z,77.30
2019-02-28T22:41:04.958Z,78.30
2019-02-28T22:43:32.486Z,79.20
2019-02-28T22:46:00.054Z,80.30
2019-02-28T22:48:27.790Z,81.40
2019-02-28T22:50:55.298Z,82.80
2019-02-28T22:53:22.848Z,83.20
2019-02-28T22:55:50.342Z,84.20
2019-02-28T22:58:17.896Z,85.60
2019-02-28T23:00:57.862Z,86.70
2019-02-28T23:03:26.079Z,87.60
2019-02-28T23:05:53.583Z,88.80
2019-02-28T23:08:21.171Z,90.00
2019-02-28T23:10:48.733Z,90.30
2019-02-28T23:13:16.256Z,91.00
2019-02-28T23:15:43.843Z,91.10
2019-02-28T23:18:11.341Z,91.20
2019-02-28T23:20:38.854Z,91.70
2019-02-28T23:23:06.405Z,91.70
2019-02-28T23:25:33.949Z,92.00
2019-02-28T23:28:27.573Z,92.20
2019-02-28T23:31:10.541Z,92.60
2019-02-28T23:33:38.078Z,92.70
2019-02-28T23:36:05.571Z,93.10
2019-02-28T23:38:35.871Z,93.70
2019-02-28T23:41:03.855Z,93.60
2019-02-28T23:43:31.388Z,94.00
2019-02-28T23:45:58.899Z,94.00
2019-02-28T23:48:26.411Z,94.10
2019-02-28T23:50:53.914Z,94.40
2019-02-28T23:53:21.448Z,94.60
2019-02-28T23:55:48.980Z,94.80
2019-02-28T23:58:16.479Z,94.90
